Pagrindinis puslapis
METAR-TAF:

METAR-TAF

Oro uostai :

Puerto Karenjas, Kolumbija

platuma: 06-10N, ilguma: 067-30W, Aukštis: 55 m

Dabartinis oras

Ataskaita buvo paskelbta 15 minutes, ne 13:00 UTC
Vėjas 13 kt iš Šiaurės/Šiaurės Rytų
Temperatūra 28°C
Drėgmė 62%
Slėgis 1013 hPa
Matomumas 10 km arba daugiau
nėra debesų žemiau 1500 m ir nėra kamuolinių lietaus debesų

METAR: SKPC 281300Z 03013KT CAVOK 28/20 A2990

Laikas: 08:15 (13:15 UTC)


TAF: trūkstamas

Orai ataskaitas ir orų prognozės (METAR, TAF).

turimą stotys yra geltonos ir raudonos taškus žemėlapyje.

Perkelti pele per norėdami pamatyti stoties vardą.

Tada spustelėkite, norėdami matyti oro stebėjimo ir prognozės.

Norėdami pakeisti žemėlapį: spustelėkite ant žalios mygtukų su juodo kryžiaus žemyn,; žalią mygtuką su brūkšneliu, jei norite nutolinti; arba žalių rodyklių gretimoms žemėlapius.


METAR-TAF: